Brooks City Base, Texas
Current Conditions -  °F | °C
As of 12:53 PM on Tuesday 21 Oct 2014 (Local Time) from KSSF Reporting Station
Clear Clear  
Wind Chill: 82°   Ceiling: Unl
Heat Index: 82°   Visibility: 10mi
Dew Point: 55°   Wind: 13mph
Humidity: 39%   Direction: 80°E
Pressure: 30.03"   Gusts: 17mph
Location:  29.3423°N, 98.4394°W
Report Text: KSSF 211753Z 08011G15KT 10SM CLR 28/13 A3003 RMK AO2 SLP158 6//// T02780128 10278 20167 PNO $
Loading
Personal Weather Stations






























Interactive Weather Map
Tropical Storm Tracking
New forecast layout! Learn more

10-Day Weather Forecast

Advertisements
Track Severe Weather on mobile